createdAt,value
2018-06-17T00:00:25.102Z,0
2018-06-17T00:01:25.095Z,0
2018-06-17T00:02:25.376Z,0
2018-06-17T00:03:25.177Z,0
2018-06-17T00:04:25.360Z,0
2018-06-17T00:05:25.369Z,0
2018-06-17T00:06:25.360Z,0
2018-06-17T00:07:24.868Z,0
2018-06-17T00:08:25.125Z,0
2018-06-17T00:09:25.819Z,0
2018-06-17T00:10:25.371Z,0
2018-06-17T00:11:25.131Z,0
2018-06-17T00:12:25.135Z,0
2018-06-17T00:13:25.380Z,0
2018-06-17T00:14:25.370Z,0
2018-06-17T00:15:25.440Z,0
2018-06-17T00:16:25.149Z,0
2018-06-17T00:17:25.121Z,0
2018-06-17T00:18:25.401Z,0
2018-06-17T00:19:25.158Z,0
2018-06-17T00:20:24.965Z,0
2018-06-17T00:21:25.133Z,0
2018-06-17T00:22:25.155Z,0
2018-06-17T00:23:24.627Z,0
2018-06-17T00:24:24.959Z,0
2018-06-17T00:25:25.146Z,0
2018-06-17T00:26:25.142Z,0
2018-06-17T00:27:25.161Z,0
2018-06-17T00:28:25.150Z,0
2018-06-17T00:29:25.177Z,0
2018-06-17T00:30:25.452Z,0
2018-06-17T00:31:25.418Z,0
2018-06-17T00:32:25.395Z,0
2018-06-17T00:33:25.168Z,0
2018-06-17T00:34:25.407Z,0
2018-06-17T00:35:25.238Z,0
2018-06-17T00:36:25.219Z,0
2018-06-17T00:37:25.411Z,0
2018-06-17T00:38:24.664Z,0
2018-06-17T00:39:26.570Z,0
2018-06-17T00:40:24.969Z,0
2018-06-17T00:41:25.419Z,0
2018-06-17T00:42:25.189Z,0
2018-06-17T00:43:25.179Z,0
2018-06-17T00:44:25.441Z,0
2018-06-17T00:45:24.965Z,0
2018-06-17T00:46:25.181Z,0
2018-06-17T00:47:25.679Z,0
2018-06-17T00:48:25.195Z,0
2018-06-17T00:49:24.938Z,0
2018-06-17T00:50:25.285Z,0
2018-06-17T00:51:25.197Z,0
2018-06-17T00:52:24.937Z,0
2018-06-17T00:53:24.945Z,0
2018-06-17T00:54:25.255Z,0
2018-06-17T00:55:25.482Z,0
2018-06-17T00:56:25.235Z,0
2018-06-17T00:57:25.468Z,0
2018-06-17T00:58:25.465Z,0
2018-06-17T00:59:25.240Z,0
2018-06-17T01:00:25.240Z,0
2018-06-17T01:01:25.225Z,0
2018-06-17T01:02:25.242Z,0
2018-06-17T01:03:25.469Z,0
2018-06-17T01:04:25.216Z,0
2018-06-17T01:05:25.471Z,0
2018-06-17T01:06:24.982Z,0
2018-06-17T01:07:25.503Z,0
2018-06-17T01:08:25.236Z,0
2018-06-17T01:09:26.767Z,0
2018-06-17T01:10:25.516Z,0
2018-06-17T01:11:25.266Z,0
2018-06-17T01:12:25.531Z,0
2018-06-17T01:13:24.761Z,0
2018-06-17T01:14:25.229Z,0
2018-06-17T01:15:25.530Z,0
2018-06-17T01:16:24.978Z,0
2018-06-17T01:17:25.245Z,0
2018-06-17T01:18:25.239Z,0
2018-06-17T01:19:25.234Z,0
2018-06-17T01:20:25.555Z,0
2018-06-17T01:21:25.240Z,0
2018-06-17T01:22:25.509Z,0
2018-06-17T01:23:25.262Z,0
2018-06-17T01:24:25.260Z,0
2018-06-17T01:25:25.327Z,0
2018-06-17T01:26:25.259Z,0
2018-06-17T01:27:25.008Z,0
2018-06-17T01:28:25.522Z,0
2018-06-17T01:29:25.007Z,0
2018-06-17T01:30:25.025Z,0
2018-06-17T01:31:25.270Z,0
2018-06-17T01:32:25.533Z,0
2018-06-17T01:33:24.766Z,0
2018-06-17T01:34:25.035Z,0
2018-06-17T01:35:25.377Z,0
2018-06-17T01:36:25.530Z,0
2018-06-17T01:37:25.035Z,0
2018-06-17T01:38:25.280Z,0
2018-06-17T01:39:25.315Z,0
2018-06-17T01:40:25.283Z,0
2018-06-17T01:41:25.275Z,0
2018-06-17T01:42:25.285Z,0
2018-06-17T01:43:25.536Z,0
2018-06-17T01:44:25.304Z,0
2018-06-17T01:45:25.343Z,0
2018-06-17T01:46:25.303Z,0
2018-06-17T01:47:25.304Z,0
2018-06-17T01:48:25.305Z,0
2018-06-17T01:49:25.304Z,0
2018-06-17T01:50:25.080Z,0
2018-06-17T01:51:25.556Z,0
2018-06-17T01:52:25.309Z,0
2018-06-17T01:53:25.308Z,0
2018-06-17T01:54:25.327Z,0
2018-06-17T01:55:25.419Z,0
2018-06-17T01:56:25.065Z,0
2018-06-17T01:57:25.570Z,0
2018-06-17T01:58:25.311Z,0
2018-06-17T01:59:25.598Z,0
2018-06-17T02:00:25.580Z,0
2018-06-17T02:01:25.573Z,0
2018-06-17T02:02:25.565Z,0
2018-06-17T02:03:25.070Z,0
2018-06-17T02:04:25.567Z,0
2018-06-17T02:05:25.140Z,0
2018-06-17T02:06:25.328Z,0
2018-06-17T02:07:25.595Z,0
2018-06-17T02:08:25.609Z,0
2018-06-17T02:09:25.375Z,0
2018-06-17T02:10:28.543Z,0
2018-06-17T02:11:25.340Z,0
2018-06-17T02:12:25.590Z,0
2018-06-17T02:13:25.606Z,0
2018-06-17T02:14:25.595Z,0
2018-06-17T02:15:25.656Z,0
2018-06-17T02:16:25.599Z,0
2018-06-17T02:17:25.354Z,0
2018-06-17T02:18:25.098Z,0
2018-06-17T02:19:25.098Z,0
2018-06-17T02:20:25.610Z,0
2018-06-17T02:21:25.089Z,0
2018-06-17T02:22:25.355Z,0
2018-06-17T02:23:25.375Z,0
2018-06-17T02:24:25.356Z,0
2018-06-17T02:25:25.691Z,0
2018-06-17T02:26:25.368Z,0
2018-06-17T02:27:25.655Z,0
2018-06-17T02:28:25.631Z,0
2018-06-17T02:29:25.366Z,0
2018-06-17T02:30:25.630Z,0
2018-06-17T02:31:25.372Z,0
2018-06-17T02:32:25.375Z,0
2018-06-17T02:33:25.632Z,0
2018-06-17T02:34:25.387Z,0
2018-06-17T02:35:25.398Z,0
2018-06-17T02:36:25.387Z,0
2018-06-17T02:37:25.655Z,0
2018-06-17T02:38:25.392Z,0
2018-06-17T02:39:25.152Z,0
2018-06-17T02:40:29.432Z,4
2018-06-17T02:41:25.646Z,4
2018-06-17T02:42:25.647Z,4
2018-06-17T02:43:25.661Z,0
2018-06-17T02:44:25.662Z,0
2018-06-17T02:45:25.465Z,4
2018-06-17T02:46:25.402Z,0
2018-06-17T02:47:25.160Z,0
2018-06-17T02:48:25.425Z,4
2018-06-17T02:49:25.411Z,4
2018-06-17T02:50:25.680Z,4
2018-06-17T02:51:25.411Z,4
2018-06-17T02:52:25.685Z,8
2018-06-17T02:53:25.417Z,4
2018-06-17T02:54:25.423Z,8
2018-06-17T02:55:25.442Z,8
2018-06-17T02:56:25.474Z,8
2018-06-17T02:57:25.692Z,8
2018-06-17T02:58:25.675Z,12
2018-06-17T02:59:25.681Z,12
2018-06-17T03:00:25.719Z,12
2018-06-17T03:01:25.174Z,16
2018-06-17T03:02:25.443Z,20
2018-06-17T03:03:25.686Z,20
2018-06-17T03:04:25.703Z,24
2018-06-17T03:05:25.207Z,24
2018-06-17T03:06:25.696Z,28
2018-06-17T03:07:25.231Z,32
2018-06-17T03:08:25.181Z,36
2018-06-17T03:09:25.461Z,40
2018-06-17T03:10:25.706Z,44
2018-06-17T03:11:28.726Z,48
2018-06-17T03:12:25.469Z,52
2018-06-17T03:13:25.208Z,56
2018-06-17T03:14:25.455Z,64
2018-06-17T03:15:25.724Z,68
2018-06-17T03:16:25.726Z,76
2018-06-17T03:17:25.708Z,88
2018-06-17T03:18:25.482Z,96
2018-06-17T03:19:25.731Z,104
2018-06-17T03:20:25.474Z,116
2018-06-17T03:21:25.726Z,128
2018-06-17T03:22:25.471Z,140
2018-06-17T03:23:25.233Z,148
2018-06-17T03:24:25.728Z,156
2018-06-17T03:25:25.723Z,164
2018-06-17T03:26:25.534Z,172
2018-06-17T03:27:25.481Z,176
2018-06-17T03:28:25.752Z,184
2018-06-17T03:29:25.754Z,192
2018-06-17T03:30:25.606Z,200
2018-06-17T03:31:25.510Z,208
2018-06-17T03:32:25.767Z,216
2018-06-17T03:33:25.486Z,224
2018-06-17T03:34:25.493Z,232
2018-06-17T03:35:25.779Z,240
2018-06-17T03:36:25.505Z,248
2018-06-17T03:37:25.749Z,256
2018-06-17T03:38:25.495Z,264
2018-06-17T03:39:25.542Z,276
2018-06-17T03:40:25.290Z,284
2018-06-17T03:41:25.804Z,296
2018-06-17T03:42:25.752Z,312
2018-06-17T03:43:25.257Z,324
2018-06-17T03:44:25.755Z,340
2018-06-17T03:45:25.824Z,356
2018-06-17T03:46:25.780Z,376
2018-06-17T03:47:25.766Z,392
2018-06-17T03:48:25.526Z,408
2018-06-17T03:49:25.514Z,428
2018-06-17T03:50:25.545Z,444
2018-06-17T03:51:25.284Z,464
2018-06-17T03:52:25.266Z,488
2018-06-17T03:53:25.508Z,516
2018-06-17T03:54:25.773Z,540
2018-06-17T03:55:25.531Z,556
2018-06-17T03:56:27.192Z,584
2018-06-17T03:57:25.522Z,616
2018-06-17T03:58:25.801Z,648
2018-06-17T03:59:25.544Z,680
2018-06-17T04:00:25.832Z,704
2018-06-17T04:01:25.549Z,728
2018-06-17T04:02:25.298Z,756
2018-06-17T04:03:25.297Z,788
2018-06-17T04:04:25.783Z,816
2018-06-17T04:05:25.881Z,836
2018-06-17T04:06:25.560Z,856
2018-06-17T04:07:25.300Z,864
2018-06-17T04:08:25.850Z,876
2018-06-17T04:09:25.536Z,884
2018-06-17T04:10:26.188Z,888
2018-06-17T04:11:29.013Z,876
2018-06-17T04:12:25.825Z,844
2018-06-17T04:13:25.306Z,768
2018-06-17T04:14:25.601Z,684
2018-06-17T04:15:25.350Z,632
2018-06-17T04:16:25.808Z,624
2018-06-17T04:17:25.562Z,656
2018-06-17T04:18:25.306Z,720
2018-06-17T04:19:25.566Z,784
2018-06-17T04:20:25.348Z,844
2018-06-17T04:21:25.581Z,916
2018-06-17T04:22:25.067Z,1024
2018-06-17T04:23:25.329Z,1168
2018-06-17T04:24:25.341Z,1324
2018-06-17T04:25:25.784Z,1496
2018-06-17T04:26:25.600Z,1656
2018-06-17T04:27:25.623Z,1728
2018-06-17T04:28:25.579Z,1764
2018-06-17T04:29:25.585Z,1772
2018-06-17T04:30:25.933Z,1712
2018-06-17T04:31:25.845Z,1620
2018-06-17T04:32:25.587Z,1588
2018-06-17T04:33:25.339Z,1600
2018-06-17T04:34:25.837Z,1636
2018-06-17T04:35:25.451Z,1676
2018-06-17T04:36:25.582Z,1700
2018-06-17T04:37:25.089Z,1736
2018-06-17T04:38:25.865Z,1804
2018-06-17T04:39:25.361Z,1860
2018-06-17T04:40:25.643Z,2044
2018-06-17T04:41:25.343Z,1908
2018-06-17T04:42:27.649Z,2012
2018-06-17T04:43:25.612Z,1952
2018-06-17T04:44:25.351Z,1660
2018-06-17T04:45:25.855Z,1476
2018-06-17T04:46:25.608Z,1364
2018-06-17T04:47:25.613Z,1280
2018-06-17T04:48:25.698Z,1228
2018-06-17T04:49:25.901Z,1196
2018-06-17T04:50:25.667Z,1176
2018-06-17T04:51:25.358Z,1152
2018-06-17T04:52:25.634Z,1112
2018-06-17T04:53:25.876Z,1060
2018-06-17T04:54:25.383Z,1000
2018-06-17T04:55:25.916Z,928
2018-06-17T04:56:25.883Z,864
2018-06-17T04:57:27.043Z,820
2018-06-17T04:58:25.386Z,808
2018-06-17T04:59:25.385Z,808
2018-06-17T05:00:25.642Z,824
2018-06-17T05:01:25.917Z,836
2018-06-17T05:02:25.641Z,824
2018-06-17T05:03:25.910Z,828
2018-06-17T05:04:25.661Z,836
2018-06-17T05:05:25.733Z,828
2018-06-17T05:06:25.680Z,812
2018-06-17T05:07:25.410Z,796
2018-06-17T05:08:25.915Z,780
2018-06-17T05:09:25.669Z,756
2018-06-17T05:10:26.004Z,744
2018-06-17T05:11:25.922Z,752
2018-06-17T05:12:29.723Z,792
2018-06-17T05:13:25.672Z,832
2018-06-17T05:14:25.666Z,860
2018-06-17T05:15:25.431Z,876
2018-06-17T05:16:25.419Z,876
2018-06-17T05:17:25.451Z,900
2018-06-17T05:18:25.679Z,932
2018-06-17T05:19:25.684Z,944
2018-06-17T05:20:25.728Z,928
2018-06-17T05:21:25.736Z,908
2018-06-17T05:22:25.777Z,896
2018-06-17T05:23:25.432Z,896
2018-06-17T05:24:25.942Z,912
2018-06-17T05:25:25.713Z,928
2018-06-17T05:26:25.435Z,932
2018-06-17T05:27:25.721Z,932
2018-06-17T05:28:25.485Z,920
2018-06-17T05:29:25.744Z,888
2018-06-17T05:30:25.732Z,852
2018-06-17T05:31:25.448Z,812
2018-06-17T05:32:25.956Z,788
2018-06-17T05:33:25.703Z,764
2018-06-17T05:34:25.460Z,752
2018-06-17T05:35:25.751Z,744
2018-06-17T05:36:25.948Z,744
2018-06-17T05:37:25.717Z,748
2018-06-17T05:38:25.719Z,756
2018-06-17T05:39:25.459Z,792
2018-06-17T05:40:25.723Z,832
2018-06-17T05:41:25.718Z,884
2018-06-17T05:42:25.709Z,936
2018-06-17T05:43:25.366Z,972
2018-06-17T05:44:25.467Z,1004
2018-06-17T05:45:25.996Z,1004
2018-06-17T05:46:25.726Z,996
2018-06-17T05:47:25.477Z,992
2018-06-17T05:48:25.971Z,992
2018-06-17T05:49:25.723Z,1024
2018-06-17T05:50:25.497Z,1084
2018-06-17T05:51:25.224Z,1176
2018-06-17T05:52:25.740Z,1252
2018-06-17T05:53:25.729Z,1324
2018-06-17T05:54:25.727Z,1404
2018-06-17T05:55:25.235Z,1468
2018-06-17T05:56:26.003Z,1544
2018-06-17T05:57:26.009Z,1644
2018-06-17T05:58:25.798Z,1768
2018-06-17T05:59:26.018Z,1896
2018-06-17T06:00:25.513Z,1988
2018-06-17T06:01:25.739Z,2000
2018-06-17T06:02:25.745Z,1936
2018-06-17T06:03:25.495Z,1824
2018-06-17T06:04:26.007Z,1744
2018-06-17T06:05:25.744Z,1672
2018-06-17T06:06:26.017Z,1564
2018-06-17T06:07:26.011Z,1460
2018-06-17T06:08:25.522Z,1384
2018-06-17T06:09:25.519Z,1316
2018-06-17T06:10:26.003Z,1272
2018-06-17T06:11:25.507Z,1252
2018-06-17T06:12:25.771Z,1268
2018-06-17T06:13:27.970Z,1308
2018-06-17T06:23:49.725Z,1624
2018-06-17T06:24:49.964Z,1652
2018-06-17T06:25:49.197Z,1692
2018-06-17T06:26:49.459Z,1740
2018-06-17T06:27:49.205Z,1824
2018-06-17T06:28:51.363Z,1940
2018-06-17T06:29:48.964Z,2092
2018-06-17T06:30:49.467Z,2260
2018-06-17T06:31:49.706Z,2408
2018-06-17T06:32:49.740Z,2552
2018-06-17T06:33:49.457Z,2696
2018-06-17T06:34:49.234Z,2804
2018-06-17T06:35:49.479Z,2952
2018-06-17T06:36:49.203Z,3048
2018-06-17T06:37:49.477Z,3152
2018-06-17T06:38:49.733Z,3300
2018-06-17T06:39:49.212Z,3496
2018-06-17T06:40:49.472Z,3668
2018-06-17T06:41:49.456Z,3816
2018-06-17T06:42:49.469Z,3948
2018-06-17T06:43:50.419Z,4076
2018-06-17T06:44:49.733Z,4192
2018-06-17T06:45:49.587Z,4340
2018-06-17T06:46:49.743Z,4468
2018-06-17T06:47:49.235Z,4552
2018-06-17T06:48:49.482Z,4528
2018-06-17T06:49:49.736Z,4480
2018-06-17T06:50:49.289Z,4544
2018-06-17T06:51:49.484Z,4700
2018-06-17T06:52:49.733Z,4896
2018-06-17T06:53:49.225Z,5140
2018-06-17T06:54:48.979Z,5332
2018-06-17T06:55:49.241Z,5456
2018-06-17T06:56:49.001Z,5572
2018-06-17T06:57:49.498Z,5648
2018-06-17T06:58:49.511Z,5708
2018-06-17T06:59:49.504Z,5828
2018-06-17T07:00:48.988Z,6048
2018-06-17T07:01:49.779Z,6260
2018-06-17T07:02:49.760Z,6448
2018-06-17T07:03:49.264Z,6596
2018-06-17T07:04:49.266Z,6820
2018-06-17T07:05:49.517Z,7028
2018-06-17T07:06:49.769Z,7072
2018-06-17T07:07:49.369Z,7068
2018-06-17T07:08:49.781Z,7252
2018-06-17T07:09:49.521Z,7464
2018-06-17T07:10:49.288Z,7680
2018-06-17T07:11:49.277Z,8064
2018-06-17T07:12:49.533Z,9028
2018-06-17T07:13:52.774Z,11216
2018-06-17T07:14:49.782Z,10344
2018-06-17T07:15:49.529Z,10716
2018-06-17T07:16:49.945Z,10800
2018-06-17T07:17:49.546Z,10772
2018-06-17T07:18:49.822Z,10768
2018-06-17T07:19:49.817Z,10752
2018-06-17T07:20:49.811Z,10300
2018-06-17T07:21:49.549Z,10032
2018-06-17T07:22:49.293Z,9648
2018-06-17T07:23:49.307Z,9208
2018-06-17T07:24:49.568Z,9000
2018-06-17T07:25:49.823Z,8872
2018-06-17T07:26:49.318Z,8756
2018-06-17T07:27:49.826Z,8772
2018-06-17T07:28:49.595Z,8584
2018-06-17T07:29:49.343Z,8608
2018-06-17T07:30:49.575Z,8696
2018-06-17T07:31:49.595Z,8844
2018-06-17T07:32:50.060Z,8880
2018-06-17T07:33:49.859Z,9180
2018-06-17T07:34:49.873Z,10196
2018-06-17T07:35:49.368Z,14176
2018-06-17T07:36:49.629Z,16608
2018-06-17T07:37:49.364Z,17632
2018-06-17T07:38:49.625Z,13420
2018-06-17T07:39:49.618Z,17344
2018-06-17T07:40:49.919Z,18784
2018-06-17T07:41:49.632Z,18304
2018-06-17T07:42:49.870Z,9560
2018-06-17T07:43:49.871Z,18368
2018-06-17T07:44:50.508Z,17440
2018-06-17T07:45:49.167Z,17152
2018-06-17T07:46:49.413Z,16864
2018-06-17T07:47:49.689Z,16672
2018-06-17T07:48:49.436Z,16288
2018-06-17T07:49:49.432Z,16480
2018-06-17T07:50:49.178Z,16608
2018-06-17T07:51:49.684Z,15600
2018-06-17T07:52:49.456Z,8484
2018-06-17T07:53:49.460Z,10132
2018-06-17T07:54:49.718Z,9156
2018-06-17T07:55:49.475Z,14948
2018-06-17T07:56:49.753Z,8504
2018-06-17T07:57:49.492Z,7560
2018-06-17T07:58:49.991Z,7900
2018-06-17T07:59:50.052Z,7840
2018-06-17T08:00:49.767Z,9992
2018-06-17T08:01:49.754Z,9308
2018-06-17T08:02:50.023Z,10956
2018-06-17T08:03:50.028Z,10204
2018-06-17T08:04:50.377Z,9432
2018-06-17T08:05:49.516Z,15672
2018-06-17T08:06:49.617Z,11448
2018-06-17T08:07:50.036Z,13196
2018-06-17T08:08:49.532Z,11820
2018-06-17T08:09:49.799Z,10260
2018-06-17T08:10:50.128Z,15776
2018-06-17T08:11:49.816Z,15736
2018-06-17T08:12:49.823Z,11672
2018-06-17T08:13:49.842Z,11784
2018-06-17T08:14:49.736Z,16448
2018-06-17T08:15:49.844Z,15224
2018-06-17T08:16:49.850Z,16064
2018-06-17T08:17:49.855Z,16128
2018-06-17T08:18:49.861Z,16032
2018-06-17T08:19:49.853Z,16064
2018-06-17T08:20:49.617Z,16000
2018-06-17T08:21:49.870Z,15936
2018-06-17T08:22:49.374Z,9652
2018-06-17T08:23:50.144Z,9148
2018-06-17T08:24:49.895Z,8964
2018-06-17T08:25:49.897Z,15464
2018-06-17T08:26:49.916Z,15608
2018-06-17T08:27:49.952Z,15564
2018-06-17T08:28:49.671Z,15732
2018-06-17T08:29:49.984Z,15704
2018-06-17T08:30:49.704Z,14796
2018-06-17T08:31:49.980Z,11188
2018-06-17T08:32:49.706Z,14852
2018-06-17T08:33:49.952Z,9216
2018-06-17T08:34:49.717Z,13164
2018-06-17T08:35:49.988Z,8472
2018-06-17T08:36:49.722Z,14688
2018-06-17T08:37:49.734Z,14540
2018-06-17T08:38:49.475Z,11316
2018-06-17T08:39:49.553Z,14728
2018-06-17T08:40:50.112Z,15084
2018-06-17T08:41:49.770Z,15308
2018-06-17T08:42:50.025Z,15600
2018-06-17T08:43:49.773Z,15704
2018-06-17T08:44:52.381Z,14408
2018-06-17T08:45:49.782Z,10028
2018-06-17T08:46:49.922Z,9284
2018-06-17T08:47:50.056Z,9640
2018-06-17T08:48:50.079Z,14080
2018-06-17T08:49:50.317Z,12708
2018-06-17T08:50:50.332Z,8020
2018-06-17T08:51:50.087Z,8156
2018-06-17T08:52:50.090Z,8288
2018-06-17T08:53:49.829Z,9980
2018-06-17T08:54:49.864Z,8764
2018-06-17T08:55:49.855Z,9140
2018-06-17T08:56:49.597Z,14752
2018-06-17T08:57:50.102Z,12432
2018-06-17T08:58:49.867Z,13476
2018-06-17T08:59:50.166Z,14604
2018-06-17T09:00:49.625Z,14072
2018-06-17T09:01:49.876Z,15528
2018-06-17T09:02:49.893Z,15736
2018-06-17T09:03:50.391Z,16416
2018-06-17T09:04:50.426Z,16512
2018-06-17T09:05:49.949Z,14576
2018-06-17T09:06:49.944Z,13684
2018-06-17T09:07:50.176Z,14132
2018-06-17T09:08:50.182Z,15220
2018-06-17T09:09:50.188Z,10672
2018-06-17T09:10:50.187Z,13808
2018-06-17T09:11:50.451Z,9900
2018-06-17T09:12:50.214Z,9752
2018-06-17T09:13:49.717Z,9708
2018-06-17T09:14:51.052Z,9980
2018-06-17T09:15:50.229Z,10160
2018-06-17T09:16:50.228Z,10620
2018-06-17T09:17:50.228Z,11132
2018-06-17T09:18:49.980Z,11600
2018-06-17T09:19:50.496Z,16000
2018-06-17T09:20:50.029Z,11464
2018-06-17T09:21:50.268Z,11180
2018-06-17T09:22:49.764Z,11076
2018-06-17T09:23:50.525Z,11156
2018-06-17T09:24:50.020Z,11740
2018-06-17T09:25:50.029Z,16320
2018-06-17T09:26:50.292Z,16192
2018-06-17T09:27:49.768Z,15968
2018-06-17T09:28:50.302Z,10916
2018-06-17T09:29:50.309Z,11388
2018-06-17T09:30:50.563Z,10356
2018-06-17T09:31:50.499Z,10100
2018-06-17T09:32:50.313Z,9736
2018-06-17T09:33:50.061Z,9004
2018-06-17T09:34:50.317Z,8544
2018-06-17T09:35:50.323Z,11472
2018-06-17T09:36:50.608Z,8152
2018-06-17T09:37:50.575Z,8136
2018-06-17T09:38:50.330Z,8604
2018-06-17T09:39:50.345Z,11328
2018-06-17T09:40:50.093Z,10436
2018-06-17T09:41:50.624Z,10504
2018-06-17T09:42:50.352Z,14712
2018-06-17T09:43:50.554Z,11752
2018-06-17T09:44:50.617Z,15344
2018-06-17T09:45:50.185Z,11480
2018-06-17T09:46:50.441Z,11640
2018-06-17T09:47:50.390Z,11860
2018-06-17T09:48:50.394Z,11956
2018-06-17T09:49:50.147Z,11616
2018-06-17T09:50:50.396Z,11244
2018-06-17T09:51:50.399Z,10668
2018-06-17T09:52:50.668Z,10244
2018-06-17T09:53:50.176Z,10228
2018-06-17T09:54:50.174Z,10452
2018-06-17T09:55:50.179Z,10548
2018-06-17T09:56:50.430Z,10444
2018-06-17T09:57:50.436Z,10140
2018-06-17T09:58:50.691Z,9768
2018-06-17T09:59:50.190Z,9984
2018-06-17T10:00:50.764Z,9308
2018-06-17T10:01:50.626Z,8748
2018-06-17T10:02:50.747Z,8268
2018-06-17T10:03:50.188Z,8004
2018-06-17T10:04:50.702Z,8656
2018-06-17T10:05:50.469Z,12312
2018-06-17T10:06:50.516Z,11872
2018-06-17T10:07:50.740Z,11596
2018-06-17T10:08:50.473Z,11316
2018-06-17T10:09:50.489Z,11104
2018-06-17T10:10:50.240Z,10864
2018-06-17T10:11:50.750Z,10672
2018-06-17T10:12:50.254Z,10500
2018-06-17T10:13:49.990Z,10408
2018-06-17T10:14:50.517Z,10320
2018-06-17T10:15:51.897Z,9428
2018-06-17T10:16:50.788Z,10160
2018-06-17T10:17:50.506Z,10160
2018-06-17T10:18:50.762Z,10064
2018-06-17T10:19:50.789Z,10196
2018-06-17T10:20:50.542Z,10172
2018-06-17T10:21:50.323Z,10256
2018-06-17T10:22:50.292Z,10268
2018-06-17T10:53:17.829Z,10960
2018-06-17T10:54:17.582Z,12516
2018-06-17T10:55:17.347Z,11228
2018-06-17T10:56:17.453Z,11568
2018-06-17T10:57:17.336Z,12060
2018-06-17T10:58:17.342Z,12268
2018-06-17T10:59:17.841Z,15016
2018-06-17T11:00:17.598Z,11680
2018-06-17T11:01:17.438Z,13956
2018-06-17T11:02:17.363Z,13832
2018-06-17T11:03:17.614Z,14032
2018-06-17T11:04:17.623Z,14308
2018-06-17T11:05:17.807Z,14428
2018-06-17T11:06:17.367Z,13772
2018-06-17T11:07:17.412Z,12212
2018-06-17T11:08:17.622Z,12076
2018-06-17T11:09:17.379Z,12044
2018-06-17T11:10:17.933Z,12464
2018-06-17T11:11:17.926Z,12344
2018-06-17T11:12:17.644Z,12192
2018-06-17T11:13:17.925Z,12308
2018-06-17T11:14:17.686Z,12724
2018-06-17T11:15:17.713Z,12920
2018-06-17T11:16:17.676Z,12928
2018-06-17T11:17:17.432Z,12860
2018-06-17T11:18:17.195Z,12788
2018-06-17T11:19:17.935Z,12668
2018-06-17T11:20:17.945Z,12576
2018-06-17T11:21:17.684Z,12524
2018-06-17T11:22:17.462Z,12572
2018-06-17T11:23:17.947Z,12404
2018-06-17T11:24:17.454Z,12356
2018-06-17T11:25:17.775Z,12376
2018-06-17T11:26:17.990Z,12060
2018-06-17T11:27:17.726Z,11532
2018-06-17T11:28:17.740Z,11384
2018-06-17T11:29:17.729Z,11480
2018-06-17T11:30:17.765Z,11608
2018-06-17T11:31:17.741Z,11696
2018-06-17T11:32:17.758Z,11632
2018-06-17T11:33:17.277Z,11516
2018-06-17T11:34:17.519Z,11448
2018-06-17T11:35:17.516Z,11504
2018-06-17T11:36:17.778Z,11500
2018-06-17T11:37:18.030Z,11484
2018-06-17T11:38:18.034Z,11508
2018-06-17T11:39:18.405Z,11552
2018-06-17T11:40:17.909Z,11720
2018-06-17T11:41:17.798Z,11776
2018-06-17T11:42:17.563Z,11764
2018-06-17T11:43:18.059Z,11952
2018-06-17T11:44:17.804Z,12480
2018-06-17T11:45:17.811Z,13256
2018-06-17T11:46:17.575Z,13712
2018-06-17T11:47:17.831Z,13916
2018-06-17T11:48:17.827Z,13924
2018-06-17T11:49:18.103Z,14072
2018-06-17T11:50:18.096Z,14084
2018-06-17T11:51:17.616Z,14096
2018-06-17T11:52:18.112Z,13804
2018-06-17T11:53:18.127Z,13416
2018-06-17T11:54:17.608Z,12908
2018-06-17T11:55:18.210Z,12376
2018-06-17T11:56:17.618Z,11772
2018-06-17T11:57:17.890Z,11144
2018-06-17T11:58:17.872Z,10964
2018-06-17T11:59:17.879Z,11132
2018-06-17T12:00:17.961Z,11280
2018-06-17T12:01:17.889Z,11396
2018-06-17T12:02:17.397Z,11464
2018-06-17T12:03:17.657Z,11608
2018-06-17T12:04:17.657Z,11880
2018-06-17T12:05:17.945Z,12080
2018-06-17T12:06:18.187Z,12372
2018-06-17T12:07:17.676Z,12480
2018-06-17T12:08:18.191Z,12648
2018-06-17T12:09:17.682Z,12892
2018-06-17T12:10:17.705Z,13024
2018-06-17T12:11:17.719Z,13080
2018-06-17T12:12:17.702Z,12976
2018-06-17T12:13:17.717Z,13084
2018-06-17T12:14:17.720Z,13352
2018-06-17T12:15:18.255Z,13796
2018-06-17T12:16:17.992Z,14492
2018-06-17T12:17:17.483Z,15648
2018-06-17T12:18:17.722Z,15732
2018-06-17T12:19:18.237Z,16096
2018-06-17T12:20:17.477Z,16320
2018-06-17T12:21:18.265Z,16512
2018-06-17T12:22:17.741Z,16480
2018-06-17T12:23:18.026Z,16160
2018-06-17T12:24:17.756Z,17888
2018-06-17T12:25:17.839Z,16384
2018-06-17T12:26:18.287Z,16576
2018-06-17T12:27:18.030Z,15416
2018-06-17T12:28:18.031Z,14472
2018-06-17T12:29:18.041Z,14904
2018-06-17T12:30:17.790Z,14024
2018-06-17T12:31:17.816Z,12796
2018-06-17T12:32:18.054Z,12740
2018-06-17T12:33:18.071Z,12988
2018-06-17T12:34:17.831Z,13404
2018-06-17T12:35:18.106Z,13744
2018-06-17T12:36:18.077Z,14484
2018-06-17T12:37:18.336Z,15288
2018-06-17T12:38:17.828Z,15744
2018-06-17T12:39:17.839Z,15872
2018-06-17T12:40:18.431Z,15904
2018-06-17T12:41:18.102Z,14468
2018-06-17T12:42:17.847Z,14656
2018-06-17T12:43:18.370Z,14356
2018-06-17T12:44:18.125Z,12296
2018-06-17T12:45:17.866Z,12116
2018-06-17T12:46:17.874Z,11552
2018-06-17T12:47:18.379Z,11088
2018-06-17T12:48:17.875Z,10804
2018-06-17T12:49:17.903Z,10320
2018-06-17T12:50:17.927Z,9724
2018-06-17T12:51:17.889Z,9300
2018-06-17T12:52:18.440Z,9016
2018-06-17T12:53:19.258Z,8744
2018-06-17T12:54:17.914Z,8584
2018-06-17T12:55:18.046Z,8752
2018-06-17T12:56:17.930Z,9336
2018-06-17T12:57:18.197Z,10160
2018-06-17T12:58:17.675Z,11332
2018-06-17T12:59:18.438Z,12740
2018-06-17T13:00:18.557Z,13980
2018-06-17T13:01:18.203Z,14832
2018-06-17T13:02:18.241Z,15232
2018-06-17T13:03:18.496Z,15296
2018-06-17T13:04:17.963Z,14828
2018-06-17T13:05:18.227Z,14500
2018-06-17T13:06:18.484Z,13700
2018-06-17T13:07:18.491Z,13496
2018-06-17T13:08:18.499Z,12788
2018-06-17T13:09:18.269Z,12464
2018-06-17T13:10:18.278Z,12952
2018-06-17T13:11:18.393Z,12348
2018-06-17T13:12:18.663Z,12332
2018-06-17T13:13:18.443Z,12284
2018-06-17T13:14:18.033Z,12264
2018-06-17T13:15:18.287Z,12524
2018-06-17T13:16:18.384Z,12084
2018-06-17T13:17:18.615Z,11940
2018-06-17T13:18:18.546Z,11496
2018-06-17T13:19:18.117Z,11836
2018-06-17T13:20:18.329Z,11112
2018-06-17T13:21:18.573Z,11372
2018-06-17T13:22:18.326Z,10964
2018-06-17T13:23:18.571Z,10980
2018-06-17T13:24:18.115Z,10604
2018-06-17T13:25:18.639Z,9712
2018-06-17T13:26:18.456Z,9808
2018-06-17T13:27:18.726Z,10724
2018-06-17T13:28:18.466Z,10636
2018-06-17T13:29:18.608Z,11304
2018-06-17T13:30:18.362Z,12148
2018-06-17T13:31:18.233Z,12216
2018-06-17T13:32:18.638Z,11896
2018-06-17T13:33:18.416Z,11284
2018-06-17T13:34:18.381Z,10876
2018-06-17T13:35:18.177Z,11280
2018-06-17T13:36:18.386Z,10628
2018-06-17T13:37:18.393Z,10336
2018-06-17T13:38:18.398Z,10356
2018-06-17T13:39:18.407Z,10688
2018-06-17T13:40:18.645Z,11396
2018-06-17T13:41:18.407Z,11664
2018-06-17T13:42:18.421Z,11448
2018-06-17T13:43:19.234Z,11512
2018-06-17T13:44:18.414Z,11916
2018-06-17T13:45:18.215Z,11344
2018-06-17T13:46:18.698Z,11924
2018-06-17T13:47:18.436Z,11680
2018-06-17T13:48:18.223Z,11848
2018-06-17T13:49:18.446Z,12224
2018-06-17T13:50:18.315Z,12856
2018-06-17T13:51:18.874Z,13880
2018-06-17T13:52:18.058Z,13488
2018-06-17T13:53:19.161Z,13592
2018-06-17T13:54:18.224Z,13148
2018-06-17T13:55:18.530Z,12632
2018-06-17T13:56:18.742Z,12376
2018-06-17T13:57:17.985Z,12108
2018-06-17T13:58:17.987Z,11744
2018-06-17T13:59:18.483Z,11608
2018-06-17T14:00:18.275Z,11428
2018-06-17T14:01:18.263Z,11224
2018-06-17T14:02:18.781Z,10748
2018-06-17T14:03:18.023Z,10244
2018-06-17T14:04:18.262Z,9816
2018-06-17T14:05:18.788Z,9492
2018-06-17T14:06:18.541Z,9616
2018-06-17T14:07:18.544Z,9452
2018-06-17T14:08:18.810Z,9368
2018-06-17T14:09:18.291Z,9500